FOON/MVB METAR and TAF weather

Enter ICAO airport designator
Station Type Date Time Source
FOON METAR 2021/05/11 18:00 UTC NOAA

FOON 111800Z 26002KT 9999 TS SCT013 FEW020CB 24/21 Q1012


Station Type Date Time Source
FOON Decoded METAR 2021/05/11 18:00 UTC NOAA

Franceville / Mvengue, Gabon (FOON) 01-39S 013-26E
May 11, 2021 - 02:00 PM EDT / 2021.05.11 1800 UTC
Wind: from the W (260 degrees) at 2 MPH (2 KT):0
Visibility: greater than 7 mile(s):0
Sky conditions: partly cloudy
Weather: thunder; Cumulonimbus clouds observed
Temperature: 75 F (24 C)
Dew Point: 69 F (21 C)
Relative Humidity: 83%
Pressure (altimeter): 29.88 in. Hg (1012 hPa)
ob: FOON 111800Z 26002KT 9999 TS SCT013 FEW020CB 24/21 Q1012
cycle: 18

Station Type Date Time Source
FOON TAF 2012/02/17 18:21 UTC NOAA

TAF TAF FOON 151600Z 1518/1618 20004KT 9999 BKN006
TEMPO 1603/1607 0200 FG OVC002
BECMG 1612/1614 TS SCT015 FEW020CB BKN030

Example: see airport list